Terminal Aerodrome Forecast
Issued by NWS Detroit/Pontiac, MI

Home | Current Version | Previous Version | Text Only | Print | Product List | Glossary On
Versions: 1 2 3 4 5 6 7 8 9 10 11 12 13 14 15 16 17 18 19 20 21 22 23 24 25 26 27 28 29 30 31
000
FTUS43 KDTX 252320
TAFDTW
TAF
KDTW 252320Z 2600/2706 28018G26KT P6SM -SHSN SCT030 BKN040
      TEMPO 2600/2601 3SM -SHSN BKN028 OVC035
     FM260200 27013G20KT P6SM SCT025 BKN040
     FM261000 23011KT P6SM SCT150 BKN250
     FM261700 22018G30KT P6SM SCT050 BKN070
     FM270000 20014KT P6SM SCT070=

USA.gov is the U.S. government's official web portal to all federal, state and local government web resources and services.